sensor_id;sensor_type;location;lat;lon;timestamp;P1;durP1;ratioP1;P2;durP2;ratioP2
72369;SDS011;60343;-32.030;115.880;2023-01-29T00:00:57;5.88;;;0.88;;
72369;SDS011;60343;-32.030;115.880;2023-01-29T00:03:45;2.92;;;0.60;;
72369;SDS011;60343;-32.030;115.880;2023-01-29T00:06:26;2.90;;;0.68;;
72369;SDS011;60343;-32.030;115.880;2023-01-29T00:09:03;3.90;;;0.70;;
72369;SDS011;60343;-32.030;115.880;2023-01-29T00:11:43;3.72;;;0.63;;
72369;SDS011;60343;-32.030;115.880;2023-01-29T00:14:21;5.05;;;1.00;;
72369;SDS011;60343;-32.030;115.880;2023-01-29T00:17:11;3.55;;;0.60;;
72369;SDS011;60343;-32.030;115.880;2023-01-29T00:19:55;2.72;;;0.40;;
72369;SDS011;60343;-32.030;115.880;2023-01-29T00:22:58;3.38;;;0.85;;
72369;SDS011;60343;-32.030;115.880;2023-01-29T00:25:45;5.40;;;0.80;;
72369;SDS011;60343;-32.030;115.880;2023-01-29T00:28:30;3.53;;;0.65;;
72369;SDS011;60343;-32.030;115.880;2023-01-29T00:31:11;5.15;;;0.75;;
72369;SDS011;60343;-32.030;115.880;2023-01-29T00:34:03;3.92;;;0.75;;
72369;SDS011;60343;-32.030;115.880;2023-01-29T00:36:50;3.78;;;0.68;;
72369;SDS011;60343;-32.030;115.880;2023-01-29T00:39:30;5.43;;;0.80;;
72369;SDS011;60343;-32.030;115.880;2023-01-29T00:42:14;3.13;;;0.68;;
72369;SDS011;60343;-32.030;115.880;2023-01-29T00:45:00;4.60;;;0.70;;
72369;SDS011;60343;-32.030;115.880;2023-01-29T00:47:37;4.95;;;0.52;;
72369;SDS011;60343;-32.030;115.880;2023-01-29T00:50:21;3.40;;;0.60;;
72369;SDS011;60343;-32.030;115.880;2023-01-29T00:53:00;4.35;;;0.60;;
72369;SDS011;60343;-32.030;115.880;2023-01-29T00:55:45;2.65;;;0.60;;
72369;SDS011;60343;-32.030;115.880;2023-01-29T00:58:24;4.78;;;0.63;;
72369;SDS011;60343;-32.030;115.880;2023-01-29T01:01:12;4.88;;;0.90;;
72369;SDS011;60343;-32.030;115.880;2023-01-29T01:04:10;4.68;;;0.95;;
72369;SDS011;60343;-32.030;115.880;2023-01-29T01:06:53;4.53;;;0.60;;
72369;SDS011;60343;-32.030;115.880;2023-01-29T01:09:38;5.18;;;0.80;;
72369;SDS011;60343;-32.030;115.880;2023-01-29T01:12:23;4.53;;;0.70;;
72369;SDS011;60343;-32.030;115.880;2023-01-29T01:15:08;3.47;;;0.60;;
72369;SDS011;60343;-32.030;115.880;2023-01-29T01:17:52;3.80;;;0.80;;
72369;SDS011;60343;-32.030;115.880;2023-01-29T01:20:56;6.82;;;0.90;;
72369;SDS011;60343;-32.030;115.880;2023-01-29T01:24:08;3.92;;;0.52;;
72369;SDS011;60343;-32.030;115.880;2023-01-29T01:27:00;8.43;;;0.98;;
72369;SDS011;60343;-32.030;115.880;2023-01-29T01:29:37;3.25;;;0.60;;
72369;SDS011;60343;-32.030;115.880;2023-01-29T01:32:28;6.80;;;0.98;;
72369;SDS011;60343;-32.030;115.880;2023-01-29T01:37:44;4.20;;;0.55;;
72369;SDS011;60343;-32.030;115.880;2023-01-29T01:53:25;6.03;;;0.77;;
72369;SDS011;60343;-32.030;115.880;2023-01-29T01:56:15;3.40;;;0.68;;
72369;SDS011;60343;-32.030;115.880;2023-01-29T02:01:53;4.63;;;0.43;;
72369;SDS011;60343;-32.030;115.880;2023-01-29T02:04:41;2.83;;;0.50;;
72369;SDS011;60343;-32.030;115.880;2023-01-29T02:07:30;4.60;;;0.77;;
72369;SDS011;60343;-32.030;115.880;2023-01-29T02:13:44;4.03;;;0.60;;
72369;SDS011;60343;-32.030;115.880;2023-01-29T02:19:15;3.90;;;0.60;;
72369;SDS011;60343;-32.030;115.880;2023-01-29T02:22:11;2.92;;;0.60;;
72369;SDS011;60343;-32.030;115.880;2023-01-29T02:25:13;4.75;;;0.70;;
72369;SDS011;60343;-32.030;115.880;2023-01-29T02:32:05;2.15;;;0.50;;
72369;SDS011;60343;-32.030;115.880;2023-01-29T02:35:08;4.13;;;0.70;;
72369;SDS011;60343;-32.030;115.880;2023-01-29T02:38:10;3.33;;;0.60;;
72369;SDS011;60343;-32.030;115.880;2023-01-29T02:41:12;3.88;;;0.68;;
72369;SDS011;60343;-32.030;115.880;2023-01-29T02:44:14;4.55;;;0.55;;
72369;SDS011;60343;-32.030;115.880;2023-01-29T02:50:16;7.90;;;0.70;;
72369;SDS011;60343;-32.030;115.880;2023-01-29T02:53:14;6.25;;;0.60;;
72369;SDS011;60343;-32.030;115.880;2023-01-29T02:55:55;4.18;;;0.70;;
72369;SDS011;60343;-32.030;115.880;2023-01-29T02:58:45;4.55;;;0.60;;
72369;SDS011;60343;-32.030;115.880;2023-01-29T03:01:33;5.50;;;0.80;;
72369;SDS011;60343;-32.030;115.880;2023-01-29T03:04:30;4.35;;;0.73;;
72369;SDS011;60343;-32.030;115.880;2023-01-29T03:10:42;3.25;;;0.50;;
72369;SDS011;60343;-32.030;115.880;2023-01-29T03:13:37;2.58;;;0.60;;
72369;SDS011;60343;-32.030;115.880;2023-01-29T03:16:28;4.50;;;0.70;;
72369;SDS011;60343;-32.030;115.880;2023-01-29T03:19:29;5.22;;;0.70;;
72369;SDS011;60343;-32.030;115.880;2023-01-29T03:22:11;3.38;;;0.50;;
72369;SDS011;60343;-32.030;115.880;2023-01-29T03:25:14;2.85;;;0.60;;
72369;SDS011;60343;-32.030;115.880;2023-01-29T03:28:06;3.10;;;0.50;;
72369;SDS011;60343;-32.030;115.880;2023-01-29T03:30:57;3.08;;;0.50;;
72369;SDS011;60343;-32.030;115.880;2023-01-29T03:33:53;4.35;;;0.88;;
72369;SDS011;60343;-32.030;115.880;2023-01-29T03:36:53;2.80;;;0.57;;
72369;SDS011;60343;-32.030;115.880;2023-01-29T03:39:48;3.70;;;0.60;;
72369;SDS011;60343;-32.030;115.880;2023-01-29T03:42:41;2.33;;;0.50;;
72369;SDS011;60343;-32.030;115.880;2023-01-29T03:45:42;1.77;;;0.38;;
72369;SDS011;60343;-32.030;115.880;2023-01-29T03:48:35;3.42;;;0.68;;
72369;SDS011;60343;-32.030;115.880;2023-01-29T03:51:42;3.13;;;0.40;;
72369;SDS011;60343;-32.030;115.880;2023-01-29T03:54:55;4.00;;;0.60;;
72369;SDS011;60343;-32.030;115.880;2023-01-29T04:01:23;3.30;;;0.60;;
72369;SDS011;60343;-32.030;115.880;2023-01-29T04:04:21;3.28;;;0.68;;
72369;SDS011;60343;-32.030;115.880;2023-01-29T04:07:12;3.78;;;0.50;;
72369;SDS011;60343;-32.030;115.880;2023-01-29T04:10:03;2.72;;;0.40;;
72369;SDS011;60343;-32.030;115.880;2023-01-29T04:13:03;4.25;;;0.60;;
72369;SDS011;60343;-32.030;115.880;2023-01-29T04:15:46;2.83;;;0.40;;
72369;SDS011;60343;-32.030;115.880;2023-01-29T04:21:42;4.40;;;0.60;;
72369;SDS011;60343;-32.030;115.880;2023-01-29T04:24:31;2.88;;;0.60;;
72369;SDS011;60343;-32.030;115.880;2023-01-29T04:28:01;4.40;;;0.80;;
72369;SDS011;60343;-32.030;115.880;2023-01-29T04:30:57;2.25;;;0.50;;
72369;SDS011;60343;-32.030;115.880;2023-01-29T04:33:49;2.88;;;0.50;;
72369;SDS011;60343;-32.030;115.880;2023-01-29T04:36:55;6.53;;;0.70;;
72369;SDS011;60343;-32.030;115.880;2023-01-29T04:39:51;4.78;;;0.50;;
72369;SDS011;60343;-32.030;115.880;2023-01-29T04:42:41;2.90;;;0.45;;
72369;SDS011;60343;-32.030;115.880;2023-01-29T04:45:31;3.00;;;0.65;;
72369;SDS011;60343;-32.030;115.880;2023-01-29T04:48:28;2.83;;;0.60;;
72369;SDS011;60343;-32.030;115.880;2023-01-29T04:51:36;2.70;;;0.60;;
72369;SDS011;60343;-32.030;115.880;2023-01-29T04:54:53;2.72;;;0.40;;
72369;SDS011;60343;-32.030;115.880;2023-01-29T04:57:52;3.75;;;0.60;;
72369;SDS011;60343;-32.030;115.880;2023-01-29T05:00:57;3.22;;;0.45;;
72369;SDS011;60343;-32.030;115.880;2023-01-29T05:03:45;2.90;;;0.50;;
72369;SDS011;60343;-32.030;115.880;2023-01-29T05:06:49;1.90;;;0.50;;
72369;SDS011;60343;-32.030;115.880;2023-01-29T05:09:47;3.90;;;0.70;;
72369;SDS011;60343;-32.030;115.880;2023-01-29T05:16:22;3.08;;;0.60;;
72369;SDS011;60343;-32.030;115.880;2023-01-29T05:19:16;3.10;;;0.50;;
72369;SDS011;60343;-32.030;115.880;2023-01-29T05:22:01;5.40;;;0.70;;
72369;SDS011;60343;-32.030;115.880;2023-01-29T05:24:49;3.53;;;0.50;;
72369;SDS011;60343;-32.030;115.880;2023-01-29T05:27:40;2.45;;;0.50;;
72369;SDS011;60343;-32.030;115.880;2023-01-29T05:30:55;2.35;;;0.50;;
72369;SDS011;60343;-32.030;115.880;2023-01-29T05:36:47;2.28;;;0.50;;
72369;SDS011;60343;-32.030;115.880;2023-01-29T05:39:33;1.65;;;0.40;;
72369;SDS011;60343;-32.030;115.880;2023-01-29T05:42:17;3.00;;;0.60;;
72369;SDS011;60343;-32.030;115.880;2023-01-29T05:45:05;2.30;;;0.30;;
72369;SDS011;60343;-32.030;115.880;2023-01-29T05:47:59;1.60;;;0.47;;
72369;SDS011;60343;-32.030;115.880;2023-01-29T05:54:02;1.17;;;0.40;;
72369;SDS011;60343;-32.030;115.880;2023-01-29T05:56:52;3.22;;;0.65;;
72369;SDS011;60343;-32.030;115.880;2023-01-29T05:59:38;1.20;;;0.32;;
72369;SDS011;60343;-32.030;115.880;2023-01-29T06:02:26;3.03;;;0.40;;
72369;SDS011;60343;-32.030;115.880;2023-01-29T06:05:21;2.03;;;0.45;;
72369;SDS011;60343;-32.030;115.880;2023-01-29T06:08:13;2.90;;;0.50;;
72369;SDS011;60343;-32.030;115.880;2023-01-29T06:11:13;2.08;;;0.60;;
72369;SDS011;60343;-32.030;115.880;2023-01-29T06:13:54;1.92;;;0.50;;
72369;SDS011;60343;-32.030;115.880;2023-01-29T06:16:35;2.10;;;0.40;;
72369;SDS011;60343;-32.030;115.880;2023-01-29T06:19:19;2.15;;;0.52;;
72369;SDS011;60343;-32.030;115.880;2023-01-29T06:22:07;2.20;;;0.40;;
72369;SDS011;60343;-32.030;115.880;2023-01-29T06:24:54;1.85;;;0.45;;
72369;SDS011;60343;-32.030;115.880;2023-01-29T06:27:54;2.92;;;0.50;;
72369;SDS011;60343;-32.030;115.880;2023-01-29T06:30:41;4.90;;;0.60;;
72369;SDS011;60343;-32.030;115.880;2023-01-29T06:33:22;2.08;;;0.50;;
72369;SDS011;60343;-32.030;115.880;2023-01-29T06:36:06;1.45;;;0.60;;
72369;SDS011;60343;-32.030;115.880;2023-01-29T06:39:05;2.60;;;0.52;;
72369;SDS011;60343;-32.030;115.880;2023-01-29T06:41:53;2.67;;;0.50;;
72369;SDS011;60343;-32.030;115.880;2023-01-29T06:44:44;2.13;;;0.43;;
72369;SDS011;60343;-32.030;115.880;2023-01-29T06:47:25;2.97;;;0.73;;
72369;SDS011;60343;-32.030;115.880;2023-01-29T06:50:14;2.08;;;0.40;;
72369;SDS011;60343;-32.030;115.880;2023-01-29T06:52:54;2.28;;;0.50;;
72369;SDS011;60343;-32.030;115.880;2023-01-29T06:55:40;1.10;;;0.40;;
72369;SDS011;60343;-32.030;115.880;2023-01-29T06:58:40;2.03;;;0.50;;
72369;SDS011;60343;-32.030;115.880;2023-01-29T07:04:22;4.07;;;0.63;;
72369;SDS011;60343;-32.030;115.880;2023-01-29T07:07:11;2.15;;;0.40;;
72369;SDS011;60343;-32.030;115.880;2023-01-29T07:09:58;5.25;;;0.60;;
72369;SDS011;60343;-32.030;115.880;2023-01-29T07:12:41;3.65;;;0.68;;
72369;SDS011;60343;-32.030;115.880;2023-01-29T07:15:29;2.45;;;0.50;;
72369;SDS011;60343;-32.030;115.880;2023-01-29T07:18:19;2.85;;;0.60;;
72369;SDS011;60343;-32.030;115.880;2023-01-29T07:21:05;2.05;;;0.60;;
72369;SDS011;60343;-32.030;115.880;2023-01-29T07:23:42;2.80;;;0.60;;
72369;SDS011;60343;-32.030;115.880;2023-01-29T07:29:23;1.58;;;0.50;;
72369;SDS011;60343;-32.030;115.880;2023-01-29T07:32:06;4.10;;;0.77;;
72369;SDS011;60343;-32.030;115.880;2023-01-29T07:35:04;2.17;;;0.50;;
72369;SDS011;60343;-32.030;115.880;2023-01-29T07:37:40;2.88;;;0.50;;
72369;SDS011;60343;-32.030;115.880;2023-01-29T07:40:34;2.33;;;0.50;;
72369;SDS011;60343;-32.030;115.880;2023-01-29T07:43:34;3.85;;;0.70;;
72369;SDS011;60343;-32.030;115.880;2023-01-29T07:46:24;1.83;;;0.50;;
72369;SDS011;60343;-32.030;115.880;2023-01-29T07:49:11;2.85;;;0.43;;
72369;SDS011;60343;-32.030;115.880;2023-01-29T07:55:21;3.28;;;0.60;;
72369;SDS011;60343;-32.030;115.880;2023-01-29T07:58:11;2.50;;;0.50;;
72369;SDS011;60343;-32.030;115.880;2023-01-29T08:00:53;2.53;;;0.50;;
72369;SDS011;60343;-32.030;115.880;2023-01-29T08:03:43;1.98;;;0.40;;
72369;SDS011;60343;-32.030;115.880;2023-01-29T08:06:34;1.90;;;0.52;;
72369;SDS011;60343;-32.030;115.880;2023-01-29T08:09:28;2.95;;;0.47;;
72369;SDS011;60343;-32.030;115.880;2023-01-29T08:12:37;1.95;;;0.43;;
72369;SDS011;60343;-32.030;115.880;2023-01-29T08:15:23;2.13;;;0.40;;
72369;SDS011;60343;-32.030;115.880;2023-01-29T08:18:13;1.25;;;0.40;;
72369;SDS011;60343;-32.030;115.880;2023-01-29T08:21:04;1.92;;;0.40;;
72369;SDS011;60343;-32.030;115.880;2023-01-29T08:23:42;1.63;;;0.50;;
72369;SDS011;60343;-32.030;115.880;2023-01-29T08:26:32;3.88;;;0.73;;
72369;SDS011;60343;-32.030;115.880;2023-01-29T08:29:26;3.08;;;0.70;;
72369;SDS011;60343;-32.030;115.880;2023-01-29T08:32:10;3.40;;;0.60;;
72369;SDS011;60343;-32.030;115.880;2023-01-29T08:34:59;4.38;;;0.70;;
72369;SDS011;60343;-32.030;115.880;2023-01-29T08:37:56;4.45;;;0.80;;
72369;SDS011;60343;-32.030;115.880;2023-01-29T08:40:38;2.03;;;0.55;;
72369;SDS011;60343;-32.030;115.880;2023-01-29T08:43:17;1.40;;;0.40;;
72369;SDS011;60343;-32.030;115.880;2023-01-29T08:49:23;2.90;;;0.68;;
72369;SDS011;60343;-32.030;115.880;2023-01-29T08:52:08;0.88;;;0.35;;
72369;SDS011;60343;-32.030;115.880;2023-01-29T08:54:56;2.65;;;0.40;;
72369;SDS011;60343;-32.030;115.880;2023-01-29T08:57:36;1.40;;;0.50;;
72369;SDS011;60343;-32.030;115.880;2023-01-29T09:00:26;3.00;;;0.50;;
72369;SDS011;60343;-32.030;115.880;2023-01-29T09:03:35;3.78;;;0.55;;
72369;SDS011;60343;-32.030;115.880;2023-01-29T09:06:32;2.20;;;0.50;;
72369;SDS011;60343;-32.030;115.880;2023-01-29T09:09:17;4.63;;;0.63;;
72369;SDS011;60343;-32.030;115.880;2023-01-29T09:11:59;1.67;;;0.50;;
72369;SDS011;60343;-32.030;115.880;2023-01-29T09:14:43;2.45;;;0.60;;
72369;SDS011;60343;-32.030;115.880;2023-01-29T09:17:29;3.13;;;0.60;;
72369;SDS011;60343;-32.030;115.880;2023-01-29T09:20:15;3.08;;;0.70;;
72369;SDS011;60343;-32.030;115.880;2023-01-29T09:23:27;4.03;;;0.75;;
72369;SDS011;60343;-32.030;115.880;2023-01-29T09:26:13;5.82;;;0.80;;
72369;SDS011;60343;-32.030;115.880;2023-01-29T09:29:09;10.68;;;1.20;;
72369;SDS011;60343;-32.030;115.880;2023-01-29T09:31:53;5.10;;;0.98;;
72369;SDS011;60343;-32.030;115.880;2023-01-29T09:34:46;7.43;;;1.00;;
72369;SDS011;60343;-32.030;115.880;2023-01-29T09:37:26;7.15;;;1.15;;
72369;SDS011;60343;-32.030;115.880;2023-01-29T09:40:24;6.00;;;1.20;;
72369;SDS011;60343;-32.030;115.880;2023-01-29T09:43:16;7.97;;;1.27;;
72369;SDS011;60343;-32.030;115.880;2023-01-29T09:46:10;5.88;;;1.08;;
72369;SDS011;60343;-32.030;115.880;2023-01-29T09:49:08;4.07;;;0.90;;
72369;SDS011;60343;-32.030;115.880;2023-01-29T09:54:48;4.90;;;0.80;;
72369;SDS011;60343;-32.030;115.880;2023-01-29T09:57:40;7.75;;;0.80;;
72369;SDS011;60343;-32.030;115.880;2023-01-29T10:00:50;8.80;;;1.00;;
72369;SDS011;60343;-32.030;115.880;2023-01-29T10:07:10;16.15;;;4.22;;
72369;SDS011;60343;-32.030;115.880;2023-01-29T10:10:19;20.85;;;7.20;;
72369;SDS011;60343;-32.030;115.880;2023-01-29T10:13:24;24.38;;;9.40;;
72369;SDS011;60343;-32.030;115.880;2023-01-29T10:16:37;8.52;;;3.25;;
72369;SDS011;60343;-32.030;115.880;2023-01-29T10:19:41;5.10;;;1.50;;
72369;SDS011;60343;-32.030;115.880;2023-01-29T10:22:40;6.03;;;1.40;;
72369;SDS011;60343;-32.030;115.880;2023-01-29T10:25:51;5.93;;;1.00;;
72369;SDS011;60343;-32.030;115.880;2023-01-29T10:28:46;2.22;;;0.45;;
72369;SDS011;60343;-32.030;115.880;2023-01-29T10:31:29;2.28;;;0.50;;
72369;SDS011;60343;-32.030;115.880;2023-01-29T10:34:22;3.17;;;0.75;;
72369;SDS011;60343;-32.030;115.880;2023-01-29T10:37:42;4.25;;;0.80;;
72369;SDS011;60343;-32.030;115.880;2023-01-29T10:40:34;4.10;;;1.13;;
72369;SDS011;60343;-32.030;115.880;2023-01-29T10:43:31;2.63;;;0.60;;
72369;SDS011;60343;-32.030;115.880;2023-01-29T10:49:54;2.97;;;0.70;;
72369;SDS011;60343;-32.030;115.880;2023-01-29T10:53:10;6.53;;;0.85;;
72369;SDS011;60343;-32.030;115.880;2023-01-29T10:56:21;4.20;;;0.63;;
72369;SDS011;60343;-32.030;115.880;2023-01-29T10:59:26;4.43;;;0.70;;
72369;SDS011;60343;-32.030;115.880;2023-01-29T11:05:53;2.85;;;0.57;;
72369;SDS011;60343;-32.030;115.880;2023-01-29T11:09:10;2.65;;;0.60;;
72369;SDS011;60343;-32.030;115.880;2023-01-29T11:11:55;2.38;;;0.60;;
72369;SDS011;60343;-32.030;115.880;2023-01-29T11:14:52;1.73;;;0.50;;
72369;SDS011;60343;-32.030;115.880;2023-01-29T11:18:07;2.53;;;0.60;;
72369;SDS011;60343;-32.030;115.880;2023-01-29T11:21:12;2.88;;;0.63;;
72369;SDS011;60343;-32.030;115.880;2023-01-29T11:24:04;3.30;;;0.60;;
72369;SDS011;60343;-32.030;115.880;2023-01-29T11:26:54;3.08;;;0.60;;
72369;SDS011;60343;-32.030;115.880;2023-01-29T11:29:41;2.55;;;0.60;;
72369;SDS011;60343;-32.030;115.880;2023-01-29T11:32:31;1.70;;;0.47;;
72369;SDS011;60343;-32.030;115.880;2023-01-29T11:38:35;3.75;;;0.73;;
72369;SDS011;60343;-32.030;115.880;2023-01-29T11:41:16;1.80;;;0.57;;
72369;SDS011;60343;-32.030;115.880;2023-01-29T11:44:16;1.65;;;0.40;;
72369;SDS011;60343;-32.030;115.880;2023-01-29T11:47:24;2.80;;;0.60;;
72369;SDS011;60343;-32.030;115.880;2023-01-29T11:50:04;3.78;;;0.60;;
72369;SDS011;60343;-32.030;115.880;2023-01-29T11:53:04;2.65;;;0.52;;
72369;SDS011;60343;-32.030;115.880;2023-01-29T11:55:59;1.63;;;0.52;;
72369;SDS011;60343;-32.030;115.880;2023-01-29T11:58:41;1.65;;;0.40;;
72369;SDS011;60343;-32.030;115.880;2023-01-29T12:01:30;2.38;;;0.50;;
72369;SDS011;60343;-32.030;115.880;2023-01-29T12:04:14;4.03;;;0.50;;
72369;SDS011;60343;-32.030;115.880;2023-01-29T12:06:54;3.47;;;0.60;;
72369;SDS011;60343;-32.030;115.880;2023-01-29T12:09:46;2.90;;;0.75;;
72369;SDS011;60343;-32.030;115.880;2023-01-29T12:12:30;3.85;;;0.73;;
72369;SDS011;60343;-32.030;115.880;2023-01-29T12:15:17;1.80;;;0.50;;
72369;SDS011;60343;-32.030;115.880;2023-01-29T12:18:04;2.25;;;0.65;;
72369;SDS011;60343;-32.030;115.880;2023-01-29T12:20:51;2.70;;;0.70;;
72369;SDS011;60343;-32.030;115.880;2023-01-29T12:23:43;2.53;;;0.60;;
72369;SDS011;60343;-32.030;115.880;2023-01-29T12:29:43;4.50;;;0.63;;
72369;SDS011;60343;-32.030;115.880;2023-01-29T12:32:42;2.45;;;0.60;;
72369;SDS011;60343;-32.030;115.880;2023-01-29T12:35:28;3.45;;;0.80;;
72369;SDS011;60343;-32.030;115.880;2023-01-29T12:38:20;1.42;;;0.40;;
72369;SDS011;60343;-32.030;115.880;2023-01-29T12:41:35;3.65;;;0.75;;
72369;SDS011;60343;-32.030;115.880;2023-01-29T12:44:52;3.30;;;0.80;;
72369;SDS011;60343;-32.030;115.880;2023-01-29T12:47:40;2.60;;;0.63;;
72369;SDS011;60343;-32.030;115.880;2023-01-29T12:50:40;4.68;;;0.80;;
72369;SDS011;60343;-32.030;115.880;2023-01-29T12:53:25;3.45;;;0.70;;
72369;SDS011;60343;-32.030;115.880;2023-01-29T12:56:17;7.05;;;0.80;;
72369;SDS011;60343;-32.030;115.880;2023-01-29T12:59:12;3.30;;;0.73;;
72369;SDS011;60343;-32.030;115.880;2023-01-29T13:05:01;5.18;;;0.82;;
72369;SDS011;60343;-32.030;115.880;2023-01-29T13:07:51;1.75;;;0.60;;
72369;SDS011;60343;-32.030;115.880;2023-01-29T13:10:49;3.13;;;0.82;;
72369;SDS011;60343;-32.030;115.880;2023-01-29T13:13:30;4.82;;;0.80;;
72369;SDS011;60343;-32.030;115.880;2023-01-29T13:16:18;3.28;;;0.88;;
72369;SDS011;60343;-32.030;115.880;2023-01-29T13:19:17;4.07;;;0.80;;
72369;SDS011;60343;-32.030;115.880;2023-01-29T13:22:14;2.97;;;0.70;;
72369;SDS011;60343;-32.030;115.880;2023-01-29T13:24:59;4.15;;;0.63;;
72369;SDS011;60343;-32.030;115.880;2023-01-29T13:27:45;5.13;;;0.73;;
72369;SDS011;60343;-32.030;115.880;2023-01-29T13:33:16;5.22;;;1.00;;
72369;SDS011;60343;-32.030;115.880;2023-01-29T13:36:06;6.80;;;0.73;;
72369;SDS011;60343;-32.030;115.880;2023-01-29T13:38:58;4.05;;;0.80;;
72369;SDS011;60343;-32.030;115.880;2023-01-29T13:41:40;4.15;;;0.82;;
72369;SDS011;60343;-32.030;115.880;2023-01-29T13:44:20;3.95;;;0.80;;
72369;SDS011;60343;-32.030;115.880;2023-01-29T13:47:03;3.35;;;0.77;;
72369;SDS011;60343;-32.030;115.880;2023-01-29T13:49:54;2.50;;;0.52;;
72369;SDS011;60343;-32.030;115.880;2023-01-29T13:52:42;5.47;;;0.70;;
72369;SDS011;60343;-32.030;115.880;2023-01-29T13:55:27;4.88;;;0.80;;
72369;SDS011;60343;-32.030;115.880;2023-01-29T13:58:08;4.88;;;0.60;;
72369;SDS011;60343;-32.030;115.880;2023-01-29T14:01:10;2.83;;;0.65;;
72369;SDS011;60343;-32.030;115.880;2023-01-29T14:04:03;4.50;;;0.80;;
72369;SDS011;60343;-32.030;115.880;2023-01-29T14:07:00;6.95;;;0.70;;
72369;SDS011;60343;-32.030;115.880;2023-01-29T14:10:11;3.75;;;0.80;;
72369;SDS011;60343;-32.030;115.880;2023-01-29T14:19:15;3.08;;;0.50;;
72369;SDS011;60343;-32.030;115.880;2023-01-29T14:21:57;3.40;;;0.73;;
72369;SDS011;60343;-32.030;115.880;2023-01-29T14:30:54;2.35;;;0.60;;
72369;SDS011;60343;-32.030;115.880;2023-01-29T14:33:35;5.30;;;0.70;;
72369;SDS011;60343;-32.030;115.880;2023-01-29T14:36:18;3.53;;;0.70;;
72369;SDS011;60343;-32.030;115.880;2023-01-29T14:38:57;4.05;;;0.70;;
72369;SDS011;60343;-32.030;115.880;2023-01-29T14:41:37;2.95;;;0.75;;
72369;SDS011;60343;-32.030;115.880;2023-01-29T14:47:50;3.75;;;0.60;;
72369;SDS011;60343;-32.030;115.880;2023-01-29T14:51:03;2.63;;;0.40;;
72369;SDS011;60343;-32.030;115.880;2023-01-29T14:53:53;4.50;;;0.77;;
72369;SDS011;60343;-32.030;115.880;2023-01-29T14:56:39;2.90;;;0.77;;
72369;SDS011;60343;-32.030;115.880;2023-01-29T14:59:25;1.85;;;0.52;;
72369;SDS011;60343;-32.030;115.880;2023-01-29T15:02:13;3.90;;;0.60;;
72369;SDS011;60343;-32.030;115.880;2023-01-29T15:05:10;3.97;;;0.70;;
72369;SDS011;60343;-32.030;115.880;2023-01-29T15:07:54;4.40;;;0.70;;
72369;SDS011;60343;-32.030;115.880;2023-01-29T15:10:37;4.75;;;0.93;;
72369;SDS011;60343;-32.030;115.880;2023-01-29T15:13:43;4.40;;;1.00;;
72369;SDS011;60343;-32.030;115.880;2023-01-29T15:16:37;2.90;;;0.55;;
72369;SDS011;60343;-32.030;115.880;2023-01-29T15:19:25;1.83;;;0.50;;
72369;SDS011;60343;-32.030;115.880;2023-01-29T15:22:24;2.03;;;0.50;;
72369;SDS011;60343;-32.030;115.880;2023-01-29T15:25:11;3.90;;;0.68;;
72369;SDS011;60343;-32.030;115.880;2023-01-29T15:27:53;4.18;;;0.80;;
72369;SDS011;60343;-32.030;115.880;2023-01-29T15:30:34;5.75;;;0.60;;
72369;SDS011;60343;-32.030;115.880;2023-01-29T15:33:13;9.10;;;0.70;;
72369;SDS011;60343;-32.030;115.880;2023-01-29T15:35:55;3.22;;;0.47;;
72369;SDS011;60343;-32.030;115.880;2023-01-29T15:38:41;2.53;;;0.40;;
72369;SDS011;60343;-32.030;115.880;2023-01-29T15:41:23;2.08;;;0.50;;
72369;SDS011;60343;-32.030;115.880;2023-01-29T15:44:09;2.10;;;0.45;;
72369;SDS011;60343;-32.030;115.880;2023-01-29T15:46:53;4.03;;;0.70;;
72369;SDS011;60343;-32.030;115.880;2023-01-29T15:49:35;4.82;;;0.60;;
72369;SDS011;60343;-32.030;115.880;2023-01-29T15:52:16;5.00;;;0.60;;
72369;SDS011;60343;-32.030;115.880;2023-01-29T15:55:09;3.53;;;0.60;;
72369;SDS011;60343;-32.030;115.880;2023-01-29T15:57:49;2.58;;;0.50;;
72369;SDS011;60343;-32.030;115.880;2023-01-29T16:00:26;4.95;;;0.60;;
72369;SDS011;60343;-32.030;115.880;2023-01-29T16:03:13;2.67;;;0.60;;
72369;SDS011;60343;-32.030;115.880;2023-01-29T16:06:02;3.63;;;0.55;;
72369;SDS011;60343;-32.030;115.880;2023-01-29T16:08:41;5.22;;;0.70;;
72369;SDS011;60343;-32.030;115.880;2023-01-29T16:11:38;6.13;;;0.70;;
72369;SDS011;60343;-32.030;115.880;2023-01-29T16:14:20;4.32;;;0.63;;
72369;SDS011;60343;-32.030;115.880;2023-01-29T16:17:20;6.13;;;0.80;;
72369;SDS011;60343;-32.030;115.880;2023-01-29T16:20:00;5.38;;;0.85;;
72369;SDS011;60343;-32.030;115.880;2023-01-29T16:22:43;5.00;;;0.70;;
72369;SDS011;60343;-32.030;115.880;2023-01-29T16:25:20;6.40;;;0.65;;
72369;SDS011;60343;-32.030;115.880;2023-01-29T16:28:05;5.15;;;0.68;;
72369;SDS011;60343;-32.030;115.880;2023-01-29T16:30:43;5.57;;;1.08;;
72369;SDS011;60343;-32.030;115.880;2023-01-29T16:33:22;6.45;;;0.85;;
72369;SDS011;60343;-32.030;115.880;2023-01-29T16:36:16;4.20;;;0.60;;
72369;SDS011;60343;-32.030;115.880;2023-01-29T16:38:54;4.95;;;0.50;;
72369;SDS011;60343;-32.030;115.880;2023-01-29T16:41:38;6.95;;;0.75;;
72369;SDS011;60343;-32.030;115.880;2023-01-29T16:47:28;4.35;;;0.60;;
72369;SDS011;60343;-32.030;115.880;2023-01-29T16:53:10;4.32;;;0.70;;
72369;SDS011;60343;-32.030;115.880;2023-01-29T16:55:52;5.88;;;0.88;;
72369;SDS011;60343;-32.030;115.880;2023-01-29T16:58:38;7.50;;;0.57;;
72369;SDS011;60343;-32.030;115.880;2023-01-29T17:01:29;5.68;;;0.95;;
72369;SDS011;60343;-32.030;115.880;2023-01-29T17:04:12;4.00;;;0.63;;
72369;SDS011;60343;-32.030;115.880;2023-01-29T17:06:53;4.68;;;1.00;;
72369;SDS011;60343;-32.030;115.880;2023-01-29T17:09:39;4.10;;;0.50;;
72369;SDS011;60343;-32.030;115.880;2023-01-29T17:12:17;8.27;;;0.90;;
72369;SDS011;60343;-32.030;115.880;2023-01-29T17:14:56;6.53;;;0.70;;
72369;SDS011;60343;-32.030;115.880;2023-01-29T17:17:40;6.60;;;0.60;;
72369;SDS011;60343;-32.030;115.880;2023-01-29T17:20:16;6.68;;;1.10;;
72369;SDS011;60343;-32.030;115.880;2023-01-29T17:22:52;7.63;;;0.82;;
72369;SDS011;60343;-32.030;115.880;2023-01-29T17:25:28;8.20;;;1.15;;
72369;SDS011;60343;-32.030;115.880;2023-01-29T17:28:03;8.75;;;0.93;;
72369;SDS011;60343;-32.030;115.880;2023-01-29T17:30:39;6.38;;;1.00;;
72369;SDS011;60343;-32.030;115.880;2023-01-29T17:33:24;4.60;;;0.82;;
72369;SDS011;60343;-32.030;115.880;2023-01-29T17:36:02;4.90;;;0.73;;
72369;SDS011;60343;-32.030;115.880;2023-01-29T17:38:38;4.63;;;0.70;;
72369;SDS011;60343;-32.030;115.880;2023-01-29T17:41:20;5.25;;;0.85;;
72369;SDS011;60343;-32.030;115.880;2023-01-29T17:43:59;5.22;;;0.88;;
72369;SDS011;60343;-32.030;115.880;2023-01-29T17:46:38;6.05;;;0.68;;
72369;SDS011;60343;-32.030;115.880;2023-01-29T17:49:24;7.93;;;0.93;;
72369;SDS011;60343;-32.030;115.880;2023-01-29T17:52:01;8.35;;;0.95;;
72369;SDS011;60343;-32.030;115.880;2023-01-29T17:54:38;6.10;;;0.70;;
72369;SDS011;60343;-32.030;115.880;2023-01-29T17:57:15;6.03;;;0.73;;
72369;SDS011;60343;-32.030;115.880;2023-01-29T17:59:52;4.80;;;0.60;;
72369;SDS011;60343;-32.030;115.880;2023-01-29T18:02:27;7.43;;;0.73;;
72369;SDS011;60343;-32.030;115.880;2023-01-29T18:05:09;6.47;;;0.82;;
72369;SDS011;60343;-32.030;115.880;2023-01-29T18:07:44;6.80;;;0.80;;
72369;SDS011;60343;-32.030;115.880;2023-01-29T18:10:22;8.57;;;0.80;;